Kalamazoo, Michigan
Current Conditions -  °F | °C
As of 4:53 PM on Friday 19 Dec 2014 (Local Time) from KAZO Reporting Station
Clear Clear  
Wind Chill: 26°   Ceiling: Unl
Heat Index: 32°   Visibility: 10mi
Dew Point: 21°   Wind: 6mph
Humidity: 64%   Direction: 90°E
Pressure: 30.25"   Gusts: NA
Location:  42.29°N, 85.6°W
Report Text: KAZO 192153Z 09005KT 10SM CLR 00/M06 A3025 RMK AO2 SLP255 T00001061
Loading
Personal Weather Stations






























Interactive Weather Map New forecast layout! Learn more

10-Day Weather Forecast

Advertisements
Track Severe Weather on mobile